Time;durP1;ratioP1;P1;durP2;ratioP2;P2;SDS_P1;SDS_P2;PMS_P1;PMS_P2;Temp;Humidity;BMP_temperature;BMP_pressure;BME280_temperature;BME280_humidity;BME280_pressure;Samples;Min_cycle;Max_cycle;Signal;HPM_P1;HPM_P2
2022/07/27 00:02:16;;;;;;;;;;;13.80;99.90;;;;;;5082928;28;20291;-70
2022/07/27 00:04:42;;;;;;;;;;;13.80;99.90;;;;;;5093847;28;20023;-70
2022/07/27 00:07:09;;;;;;;;;;;13.80;99.90;;;;;;5092257;28;20010;-71
2022/07/27 00:09:37;;;;;;;;;;;13.80;99.90;;;;;;5094512;28;20025;-71
2022/07/27 00:12:04;;;;;;;;;;;13.80;99.90;;;;;;5087899;28;20010;-69
2022/07/27 00:14:31;;;;;;;;;;;13.80;99.90;;;;;;5090663;28;20760;-71
2022/07/27 00:16:58;;;;;;;;;;;13.70;99.90;;;;;;5080789;28;19959;-71
2022/07/27 00:19:24;;;;;;;;;;;13.70;99.90;;;;;;5093301;28;20463;-71
2022/07/27 00:21:51;;;;;;;;;;;13.70;99.90;;;;;;5085784;28;19970;-71
2022/07/27 00:24:18;;;;;;;;;;;13.60;99.90;;;;;;5073444;28;19978;-70
2022/07/27 00:26:46;;;;;;;;;;;13.50;99.90;;;;;;5078475;28;20023;-70
2022/07/27 00:29:12;;;;;;;;;;;13.60;99.90;;;;;;5091845;28;20007;-70
2022/07/27 00:31:39;;;;;;;;;;;13.50;99.90;;;;;;5091263;28;19970;-70
2022/07/27 00:34:06;;;;;;;;;;;13.30;99.90;;;;;;5093459;28;19931;-70
2022/07/27 00:36:32;;;;;;;;;;;13.20;99.90;;;;;;5087429;28;19995;-70
2022/07/27 00:38:59;;;;;;;;;;;13.20;99.90;;;;;;5073216;28;19931;-71
2022/07/27 00:41:26;;;;;;;;;;;13.20;99.90;;;;;;5075750;28;20031;-71
2022/07/27 00:43:55;;;;;;;;;;;13.30;99.90;;;;;;5084217;28;20015;-70
2022/07/27 00:46:22;;;;;;;;;;;13.30;99.90;;;;;;5074788;28;20019;-70
2022/07/27 00:48:49;;;;;;;;;;;13.30;99.90;;;;;;5093972;28;19985;-71
2022/07/27 00:51:17;;;;;;;;;;;13.30;99.90;;;;;;5092634;28;20532;-70
2022/07/27 00:53:44;;;;;;;;;;;13.40;99.90;;;;;;5094311;28;19977;-72
2022/07/27 00:56:11;;;;;;;;;;;13.30;99.90;;;;;;5090874;28;20023;-72
2022/07/27 00:58:38;;;;;;;;;;;13.20;99.90;;;;;;5071470;28;20004;-71
2022/07/27 01:01:06;;;;;;;;;;;13.10;99.90;;;;;;5072857;28;20433;-72
2022/07/27 01:03:33;;;;;;;;;;;13.00;99.90;;;;;;5072188;28;19951;-71
2022/07/27 01:06:00;;;;;;;;;;;12.90;99.90;;;;;;5072620;28;19970;-71
2022/07/27 01:08:26;;;;;;;;;;;13.00;99.90;;;;;;5092366;28;20044;-72
2022/07/27 01:10:54;;;;;;;;;;;13.00;99.90;;;;;;5092626;28;19963;-72
2022/07/27 01:13:21;;;;;;;;;;;13.00;99.90;;;;;;5091512;28;19936;-72
2022/07/27 01:15:48;;;;;;;;;;;12.90;99.90;;;;;;5086745;28;19963;-72
2022/07/27 01:18:28;;;;;;;;;;;12.90;99.90;;;;;;5090916;28;19971;-72
2022/07/27 01:20:54;;;;;;;;;;;13.00;99.90;;;;;;5076953;28;20391;-72
2022/07/27 01:23:23;;;;;;;;;;;13.00;99.90;;;;;;5091893;28;20384;-72
2022/07/27 01:25:50;;;;;;;;;;;12.90;99.90;;;;;;5079778;28;19931;-72
2022/07/27 01:28:16;;;;;;;;;;;12.90;99.90;;;;;;5089936;28;19924;-72
2022/07/27 01:30:43;;;;;;;;;;;12.90;99.90;;;;;;5085412;28;20296;-72
2022/07/27 01:33:10;;;;;;;;;;;12.80;99.90;;;;;;5089473;28;20019;-71
2022/07/27 01:35:37;;;;;;;;;;;12.80;99.90;;;;;;5088038;28;20007;-71
2022/07/27 01:38:04;;;;;;;;;;;12.70;99.90;;;;;;5088584;28;19966;-71
2022/07/27 01:40:32;;;;;;;;;;;12.60;99.90;;;;;;5092149;28;20023;-71
2022/07/27 01:43:00;;;;;;;;;;;12.60;99.90;;;;;;5085353;28;19932;-71
2022/07/27 01:45:27;;;;;;;;;;;12.50;99.90;;;;;;5071974;28;19924;-71
2022/07/27 01:47:53;;;;;;;;;;;12.50;99.90;;;;;;5087161;28;20014;-70
2022/07/27 01:50:20;;;;;;;;;;;12.50;99.90;;;;;;5092280;28;20071;-71
2022/07/27 01:52:47;;;;;;;;;;;12.40;99.90;;;;;;5090191;28;20014;-72
2022/07/27 01:55:14;;;;;;;;;;;12.40;99.90;;;;;;5092303;28;19931;-70
2022/07/27 01:57:42;;;;;;;;;;;12.40;99.90;;;;;;5089954;28;19977;-71
2022/07/27 02:00:11;;;;;;;;;;;12.40;99.90;;;;;;5092383;28;20405;-71
2022/07/27 02:02:38;;;;;;;;;;;12.40;99.90;;;;;;5089549;28;19924;-71
2022/07/27 02:05:04;;;;;;;;;;;12.30;99.90;;;;;;5092022;28;20023;-71
2022/07/27 02:07:31;;;;;;;;;;;12.30;99.90;;;;;;5090341;28;19923;-71
2022/07/27 02:09:58;;;;;;;;;;;12.30;99.90;;;;;;5092095;28;20020;-71
2022/07/27 02:12:36;;;;;;;;;;;12.30;99.90;;;;;;5085955;28;19924;-70
2022/07/27 02:15:06;;;;;;;;;;;12.30;99.90;;;;;;5092278;28;19935;-70
2022/07/27 02:17:33;;;;;;;;;;;12.30;99.90;;;;;;5081603;28;19983;-71
2022/07/27 02:19:59;;;;;;;;;;;12.20;99.90;;;;;;5071340;28;19959;-71
2022/07/27 02:22:26;;;;;;;;;;;12.20;99.90;;;;;;5071292;28;20455;-71
2022/07/27 02:24:53;;;;;;;;;;;12.10;99.90;;;;;;5072392;28;19944;-71
2022/07/27 02:27:19;;;;;;;;;;;12.20;99.90;;;;;;5081451;28;20019;-71
2022/07/27 02:29:46;;;;;;;;;;;12.10;99.90;;;;;;5091351;28;20026;-71
2022/07/27 02:32:14;;;;;;;;;;;12.10;99.90;;;;;;5089859;28;20019;-71
2022/07/27 02:34:41;;;;;;;;;;;12.10;99.90;;;;;;5092029;28;19963;-71
2022/07/27 02:37:07;;;;;;;;;;;12.00;99.90;;;;;;5090915;28;19924;-71
2022/07/27 02:39:34;;;;;;;;;;;12.00;99.90;;;;;;5092344;28;20031;-71
2022/07/27 02:42:01;;;;;;;;;;;11.90;99.90;;;;;;5082817;28;19928;-71
2022/07/27 02:44:28;;;;;;;;;;;11.90;99.90;;;;;;5095351;28;19924;-71
2022/07/27 02:46:55;;;;;;;;;;;12.00;99.90;;;;;;5091865;28;20003;-71
2022/07/27 02:49:23;;;;;;;;;;;11.90;99.90;;;;;;5095339;28;19964;-71
2022/07/27 02:51:50;;;;;;;;;;;11.80;99.90;;;;;;5093539;28;20015;-71
2022/07/27 02:54:17;;;;;;;;;;;11.80;99.90;;;;;;5095451;28;20027;-70
2022/07/27 02:56:44;;;;;;;;;;;11.80;99.90;;;;;;5086109;28;19960;-70
2022/07/27 02:59:10;;;;;;;;;;;11.70;99.90;;;;;;5095090;28;19977;-70
2022/07/27 03:01:37;;;;;;;;;;;11.70;99.90;;;;;;5093280;28;20016;-70
2022/07/27 03:04:04;;;;;;;;;;;11.70;99.90;;;;;;5095150;28;20375;-70
2022/07/27 03:06:32;;;;;;;;;;;11.70;99.90;;;;;;5093110;28;19967;-70
2022/07/27 03:08:59;;;;;;;;;;;11.70;99.90;;;;;;5094844;28;20019;-72
2022/07/27 03:11:26;;;;;;;;;;;11.60;99.90;;;;;;5093289;28;19924;-72
2022/07/27 03:13:52;;;;;;;;;;;11.60;99.90;;;;;;5082884;28;20007;-70
2022/07/27 03:16:19;;;;;;;;;;;11.60;99.90;;;;;;5076584;28;20379;-70
2022/07/27 03:18:46;;;;;;;;;;;11.50;99.90;;;;;;5095247;28;20038;-71
2022/07/27 03:21:13;;;;;;;;;;;11.50;99.90;;;;;;5092787;28;19978;-71
2022/07/27 03:23:41;;;;;;;;;;;11.60;99.90;;;;;;5094778;28;20006;-71
2022/07/27 03:26:07;;;;;;;;;;;11.50;99.90;;;;;;5089734;28;20431;-70
2022/07/27 03:28:34;;;;;;;;;;;11.50;99.90;;;;;;5094423;28;20021;-71
2022/07/27 03:31:01;;;;;;;;;;;11.50;99.90;;;;;;5084389;28;19925;-70
2022/07/27 03:33:27;;;;;;;;;;;11.50;99.90;;;;;;5094586;28;19932;-71
2022/07/27 03:35:54;;;;;;;;;;;11.50;99.90;;;;;;5093932;28;19966;-71
2022/07/27 03:38:21;;;;;;;;;;;11.40;99.90;;;;;;5093839;28;20365;-71
2022/07/27 03:40:50;;;;;;;;;;;11.50;99.90;;;;;;5092739;28;19933;-71
2022/07/27 03:43:16;;;;;;;;;;;11.30;99.90;;;;;;5073846;28;19924;-71
2022/07/27 03:45:43;;;;;;;;;;;11.30;99.90;;;;;;5073972;28;19968;-71
2022/07/27 03:48:10;;;;;;;;;;;11.20;99.90;;;;;;5074093;28;20334;-72
2022/07/27 03:50:36;;;;;;;;;;;11.20;99.90;;;;;;5073519;28;20399;-71
2022/07/27 03:53:03;;;;;;;;;;;11.20;99.90;;;;;;5090238;28;19963;-71
2022/07/27 03:55:30;;;;;;;;;;;11.10;99.90;;;;;;5093779;28;20027;-71
2022/07/27 03:57:58;;;;;;;;;;;11.10;99.90;;;;;;5091427;28;19934;-71
2022/07/27 04:00:25;;;;;;;;;;;11.10;99.90;;;;;;5082475;28;19968;-72
2022/07/27 04:02:52;;;;;;;;;;;11.10;99.90;;;;;;5088512;28;19956;-71
2022/07/27 04:05:19;;;;;;;;;;;11.20;99.90;;;;;;5094341;28;19952;-71
2022/07/27 04:07:46;;;;;;;;;;;11.10;99.90;;;;;;5092089;28;19924;-71
2022/07/27 04:10:13;;;;;;;;;;;11.10;99.90;;;;;;5076607;28;19978;-71
2022/07/27 04:12:40;;;;;;;;;;;11.20;99.90;;;;;;5086370;28;20023;-71
2022/07/27 04:15:08;;;;;;;;;;;11.20;99.90;;;;;;5093498;28;20011;-71
2022/07/27 04:17:35;;;;;;;;;;;11.20;99.90;;;;;;5089133;28;20390;-71
2022/07/27 04:20:03;;;;;;;;;;;11.20;99.90;;;;;;5093841;28;19924;-71
2022/07/27 04:22:29;;;;;;;;;;;11.20;99.90;;;;;;5080216;28;19924;-71
2022/07/27 04:24:56;;;;;;;;;;;11.20;99.90;;;;;;5076583;28;19959;-70
2022/07/27 04:27:23;;;;;;;;;;;11.20;99.90;;;;;;5091574;28;19930;-70
2022/07/27 04:29:49;;;;;;;;;;;11.30;99.90;;;;;;5093161;28;20038;-70
2022/07/27 04:32:18;;;;;;;;;;;11.30;99.90;;;;;;5091578;28;19955;-70
2022/07/27 04:34:44;;;;;;;;;;;11.30;99.90;;;;;;5093808;28;20014;-70
2022/07/27 04:37:11;;;;;;;;;;;11.30;99.90;;;;;;5092510;28;20356;-70
2022/07/27 04:39:38;;;;;;;;;;;11.40;99.90;;;;;;5094279;28;20014;-71
2022/07/27 04:42:04;;;;;;;;;;;11.40;99.90;;;;;;5091376;28;19924;-70
2022/07/27 04:44:31;;;;;;;;;;;11.40;99.90;;;;;;5094268;28;20382;-71
2022/07/27 04:46:59;;;;;;;;;;;11.50;99.90;;;;;;5091614;28;19964;-71
2022/07/27 04:49:27;;;;;;;;;;;11.50;99.90;;;;;;5093056;28;19974;-71
2022/07/27 04:51:53;;;;;;;;;;;11.50;99.90;;;;;;5091404;28;19928;-71
2022/07/27 04:54:20;;;;;;;;;;;11.60;99.90;;;;;;5093321;28;19931;-72
2022/07/27 04:56:47;;;;;;;;;;;11.60;99.90;;;;;;5091095;28;19931;-71
2022/07/27 04:59:13;;;;;;;;;;;11.60;99.90;;;;;;5092601;28;20039;-71
2022/07/27 05:01:40;;;;;;;;;;;11.70;99.90;;;;;;5090606;28;20023;-71
2022/07/27 05:04:07;;;;;;;;;;;11.70;99.90;;;;;;5086774;28;19979;-71
2022/07/27 05:06:35;;;;;;;;;;;11.80;99.90;;;;;;5075797;28;20022;-72
2022/07/27 05:09:02;;;;;;;;;;;11.90;99.90;;;;;;5075689;28;19932;-72
2022/07/27 05:11:29;;;;;;;;;;;11.90;99.90;;;;;;5075494;28;20288;-71
2022/07/27 05:13:55;;;;;;;;;;;12.00;99.90;;;;;;5093168;28;19931;-71
2022/07/27 05:16:22;;;;;;;;;;;12.00;99.90;;;;;;5082655;28;19925;-71
2022/07/27 05:18:49;;;;;;;;;;;12.10;99.90;;;;;;5092987;28;19938;-71
2022/07/27 05:21:15;;;;;;;;;;;12.10;99.90;;;;;;5082669;28;19964;-72
2022/07/27 05:23:44;;;;;;;;;;;12.20;99.90;;;;;;5072508;28;19924;-71
2022/07/27 05:26:11;;;;;;;;;;;12.20;99.90;;;;;;5071923;28;20391;-72
2022/07/27 05:28:37;;;;;;;;;;;12.30;99.90;;;;;;5072621;28;19925;-72
2022/07/27 05:31:04;;;;;;;;;;;12.40;99.90;;;;;;5071355;28;19971;-70
2022/07/27 05:33:31;;;;;;;;;;;12.40;99.90;;;;;;5088936;28;20410;-70
2022/07/27 05:35:58;;;;;;;;;;;12.50;99.90;;;;;;5070978;28;19924;-69
2022/07/27 05:38:25;;;;;;;;;;;12.70;99.90;;;;;;5082065;28;19928;-70
2022/07/27 05:40:53;;;;;;;;;;;12.80;99.90;;;;;;5088199;28;19958;-72
2022/07/27 05:43:19;;;;;;;;;;;12.90;99.90;;;;;;5072191;28;20486;-71
2022/07/27 05:45:46;;;;;;;;;;;13.00;99.90;;;;;;5071866;28;19925;-70
2022/07/27 05:48:13;;;;;;;;;;;13.10;99.90;;;;;;5089303;28;19924;-70
2022/07/27 05:50:40;;;;;;;;;;;13.20;99.90;;;;;;5092292;28;19959;-71
2022/07/27 05:53:07;;;;;;;;;;;13.30;99.90;;;;;;5072706;28;20342;-70
2022/07/27 05:55:34;;;;;;;;;;;13.40;99.90;;;;;;5072320;28;20159;-69
2022/07/27 05:58:02;;;;;;;;;;;13.50;99.90;;;;;;5087370;28;20454;-70
2022/07/27 06:00:29;;;;;;;;;;;13.60;99.90;;;;;;5091980;28;19924;-70
2022/07/27 06:02:55;;;;;;;;;;;13.90;99.90;;;;;;5090304;28;20002;-71
2022/07/27 06:05:22;;;;;;;;;;;15.60;99.90;;;;;;5071582;28;19967;-70
2022/07/27 06:08:02;;;;;;;;;;;17.50;99.90;;;;;;5086208;28;19924;-70
2022/07/27 06:10:29;;;;;;;;;;;19.40;99.90;;;;;;5092336;28;19924;-71
2022/07/27 06:12:56;;;;;;;;;;;20.80;97.30;;;;;;5092339;28;19924;-70
2022/07/27 06:15:24;;;;;;;;;;;22.30;93.20;;;;;;5094055;28;20020;-71
2022/07/27 06:17:52;;;;;;;;;;;23.20;85.00;;;;;;5083503;28;20019;-71
2022/07/27 06:20:20;;;;;;;;;;;23.80;72.00;;;;;;5076087;28;19925;-71
2022/07/27 06:22:48;;;;;;;;;;;22.40;69.40;;;;;;5075898;28;19947;-71
2022/07/27 06:25:15;;;;;;;;;;;21.00;75.60;;;;;;5075056;28;20124;-70
2022/07/27 06:27:42;;;;;;;;;;;19.90;85.00;;;;;;5084697;28;20460;-71
2022/07/27 06:30:09;;;;;;;;;;;19.10;91.80;;;;;;5096085;28;19924;-70
2022/07/27 06:32:37;;;;;;;;;;;18.60;94.70;;;;;;5093780;28;19959;-70
2022/07/27 06:35:04;;;;;;;;;;;18.20;96.60;;;;;;5095610;28;19931;-70
2022/07/27 06:37:31;;;;;;;;;;;17.90;98.60;;;;;;5081225;28;19936;-71
2022/07/27 06:39:59;;;;;;;;;;;17.80;99.50;;;;;;5074402;28;19924;-71
2022/07/27 06:42:26;;;;;;;;;;;17.40;99.90;;;;;;5076249;28;19931;-71
2022/07/27 06:44:53;;;;;;;;;;;17.20;99.90;;;;;;5074554;28;19964;-70
2022/07/27 06:47:21;;;;;;;;;;;17.00;99.90;;;;;;5084985;28;20333;-72
2022/07/27 06:49:49;;;;;;;;;;;16.90;99.90;;;;;;5095124;28;19924;-71
2022/07/27 06:52:16;;;;;;;;;;;16.70;99.90;;;;;;5092999;28;19924;-71
2022/07/27 06:54:42;;;;;;;;;;;16.50;99.90;;;;;;5094952;28;20023;-71
2022/07/27 06:57:09;;;;;;;;;;;16.60;99.90;;;;;;5076615;28;19970;-70
2022/07/27 06:59:36;;;;;;;;;;;16.60;99.90;;;;;;5075005;28;19924;-71
2022/07/27 07:02:03;;;;;;;;;;;16.50;99.90;;;;;;5082199;28;19960;-71
2022/07/27 07:04:31;;;;;;;;;;;16.50;99.90;;;;;;5094964;28;20006;-71
2022/07/27 07:07:00;;;;;;;;;;;16.60;99.90;;;;;;5092818;28;19981;-71
2022/07/27 07:09:27;;;;;;;;;;;16.50;99.90;;;;;;5095089;28;19924;-71
2022/07/27 07:11:53;;;;;;;;;;;16.50;99.90;;;;;;5089594;28;19944;-70
2022/07/27 07:14:20;;;;;;;;;;;16.00;99.90;;;;;;5075581;28;19960;-70
2022/07/27 07:16:47;;;;;;;;;;;16.10;99.90;;;;;;5081722;28;19968;-72
2022/07/27 07:19:14;;;;;;;;;;;16.00;99.90;;;;;;5084244;28;19924;-72
2022/07/27 07:21:40;;;;;;;;;;;16.00;99.90;;;;;;5090155;28;19930;-73
2022/07/27 07:24:09;;;;;;;;;;;16.20;99.90;;;;;;5073445;28;19928;-70
2022/07/27 07:26:36;;;;;;;;;;;16.50;99.90;;;;;;5078429;28;19932;-70
2022/07/27 07:29:03;;;;;;;;;;;16.60;99.90;;;;;;5088281;28;20330;-70
2022/07/27 07:31:30;;;;;;;;;;;16.60;99.90;;;;;;5076232;28;20462;-69
2022/07/27 07:33:57;;;;;;;;;;;17.00;99.90;;;;;;5093496;28;20054;-70
2022/07/27 07:36:24;;;;;;;;;;;17.40;99.90;;;;;;5076018;28;19924;-70
2022/07/27 07:38:52;;;;;;;;;;;17.70;99.90;;;;;;5094854;28;19972;-70
2022/07/27 07:41:20;;;;;;;;;;;17.80;99.90;;;;;;5092641;28;19928;-70
2022/07/27 07:43:46;;;;;;;;;;;18.40;99.90;;;;;;5088159;28;19929;-69
2022/07/27 07:46:13;;;;;;;;;;;18.90;99.50;;;;;;5074648;28;19986;-70
2022/07/27 07:48:42;;;;;;;;;;;20.30;98.00;;;;;;5095033;28;19974;-72
2022/07/27 07:51:08;;;;;;;;;;;22.30;92.70;;;;;;5092176;28;20371;-70
2022/07/27 07:53:35;;;;;;;;;;;23.30;85.90;;;;;;5072688;28;20442;-70
2022/07/27 07:56:02;;;;;;;;;;;24.30;76.10;;;;;;5073387;28;19970;-70
2022/07/27 07:58:32;;;;;;;;;;;24.70;70.10;;;;;;5093780;28;20394;-70
2022/07/27 08:00:59;;;;;;;;;;;25.20;65.30;;;;;;5077571;28;20037;-70
2022/07/27 08:03:25;;;;;;;;;;;24.30;60.10;;;;;;5093195;28;19946;-71
2022/07/27 08:05:52;;;;;;;;;;;26.50;57.40;;;;;;5093612;28;19986;-71
2022/07/27 08:08:19;;;;;;;;;;;28.10;48.90;;;;;;5092492;28;20438;-72
2022/07/27 08:10:46;;;;;;;;;;;;;;;;;;5093739;28;20548;-72
2022/07/27 08:13:13;;;;;;;;;;;;;;;;;;5087756;28;19928;-70
2022/07/27 08:15:40;;;;;;;;;;;;;;;;;;5087280;28;19931;-71
2022/07/27 08:18:08;;;;;;;;;;;;;;;;;;5089761;28;19974;-71
2022/07/27 08:20:35;;;;;;;;;;;;;;;;;;5093762;28;19924;-72
2022/07/27 08:23:03;;;;;;;;;;;25.30;41.20;;;;;;5082643;28;19925;-70
2022/07/27 08:25:30;;;;;;;;;;;23.40;46.60;;;;;;5073313;28;20342;-70
2022/07/27 08:27:57;;;;;;;;;;;22.80;47.10;;;;;;5072881;28;19928;-70
2022/07/27 08:30:24;;;;;;;;;;;20.90;54.10;;;;;;5073294;28;19989;-71
2022/07/27 08:32:51;;;;;;;;;;;21.70;53.30;;;;;;5088013;28;19971;-70
2022/07/27 08:35:19;;;;;;;;;;;20.80;52.50;;;;;;5095461;28;20003;-71
2022/07/27 08:37:46;;;;;;;;;;;19.50;59.40;;;;;;5093292;28;19924;-70
2022/07/27 08:40:15;;;;;;;;;;;18.90;66.80;;;;;;5093594;28;20076;-70
2022/07/27 08:42:42;;;;;;;;;;;18.90;69.50;;;;;;5090794;28;19975;-70
2022/07/27 08:45:10;;;;;;;;;;;18.90;74.30;;;;;;5092827;28;19924;-71
2022/07/27 08:47:38;;;;;;;;;;;20.10;69.40;;;;;;5090298;28;20029;-70
2022/07/27 08:50:21;;;;;;;;;;;20.60;68.00;;;;;;5092088;28;20003;-70
2022/07/27 08:52:50;;;;;;;;;;;21.50;63.60;;;;;;5088032;28;20010;-70
2022/07/27 08:55:18;;;;;;;;;;;21.90;62.30;;;;;;5092843;28;19924;-72
2022/07/27 08:57:45;;;;;;;;;;;23.60;54.50;;;;;;5090636;28;19966;-72
2022/07/27 09:00:12;;;;;;;;;;;24.10;51.00;;;;;;5093141;28;20019;-73
2022/07/27 09:02:41;;;;;;;;;;;24.50;45.30;;;;;;5090875;28;19930;-72
2022/07/27 09:05:08;;;;;;;;;;;25.30;45.00;;;;;;5091985;28;19924;-72
2022/07/27 09:07:35;;;;;;;;;;;24.30;42.70;;;;;;5090877;28;20038;-72
2022/07/27 09:10:01;;;;;;;;;;;24.90;39.70;;;;;;5092545;28;19924;-72
2022/07/27 09:12:31;;;;;;;;;;;23.00;43.40;;;;;;5090478;28;19930;-71
2022/07/27 09:15:03;;;;;;;;;;;24.30;43.80;;;;;;5092842;28;20340;-70
2022/07/27 09:17:30;;;;;;;;;;;26.70;35.80;;;;;;5086444;28;19959;-71
2022/07/27 09:19:58;;;;;;;;;;;28.40;30.00;;;;;;5087941;28;20364;-71
2022/07/27 09:22:38;;;;;;;;;;;26.20;39.20;;;;;;5082943;28;19924;-70
2022/07/27 09:25:05;;;;;;;;;;;23.00;44.00;;;;;;5092242;28;20283;-70
2022/07/27 09:27:33;;;;;;;;;;;22.80;45.20;;;;;;5090199;28;20003;-70
2022/07/27 09:30:01;;;;;;;;;;;22.00;45.30;;;;;;5092226;28;19924;-70
2022/07/27 09:32:27;;;;;;;;;;;21.80;45.70;;;;;;5088453;28;20325;-72
2022/07/27 09:34:54;;;;;;;;;;;20.90;47.90;;;;;;5092905;28;19924;-74
2022/07/27 09:37:23;;;;;;;;;;;20.90;48.10;;;;;;5083292;28;20439;-74
2022/07/27 09:39:51;;;;;;;;;;;20.30;49.80;;;;;;5092354;28;19924;-73
2022/07/27 09:42:19;;;;;;;;;;;20.10;50.50;;;;;;5079981;28;19924;-73
2022/07/27 09:44:48;;;;;;;;;;;19.60;50.50;;;;;;5071116;28;20340;-73
2022/07/27 09:47:21;;;;;;;;;;;19.30;52.40;;;;;;5084056;28;20003;-72
2022/07/27 09:49:48;;;;;;;;;;;19.70;50.80;;;;;;5091696;28;19967;-70
2022/07/27 09:52:22;;;;;;;;;;;20.00;50.40;;;;;;5089695;28;20002;-70
2022/07/27 09:54:49;;;;;;;;;;;20.30;49.50;;;;;;5092250;28;20286;-70
2022/07/27 09:57:17;;;;;;;;;;;20.50;51.00;;;;;;5083669;28;20353;-72
2022/07/27 09:59:43;;;;;;;;;;;21.00;45.50;;;;;;5071884;28;19924;-71
2022/07/27 10:02:13;;;;;;;;;;;20.10;45.80;;;;;;5080838;28;19931;-71
2022/07/27 10:04:39;;;;;;;;;;;20.40;45.00;;;;;;5090741;28;19924;-72
2022/07/27 10:07:06;;;;;;;;;;;20.00;46.90;;;;;;5072272;28;19972;-71
2022/07/27 10:09:33;;;;;;;;;;;19.90;46.90;;;;;;5071935;28;19924;-71
2022/07/27 10:12:00;;;;;;;;;;;20.30;47.10;;;;;;5079141;28;19935;-71
2022/07/27 10:14:27;;;;;;;;;;;20.60;46.30;;;;;;5086806;28;20232;-70
2022/07/27 10:16:54;;;;;;;;;;;20.00;47.20;;;;;;5089637;28;19924;-70
2022/07/27 10:19:25;;;;;;;;;;;20.00;47.30;;;;;;5092237;28;19924;-70
2022/07/27 10:21:52;;;;;;;;;;;19.90;48.40;;;;;;5089830;28;19974;-69
2022/07/27 10:24:27;;;;;;;;;;;20.20;48.00;;;;;;5078493;28;20041;-70
2022/07/27 10:26:54;;;;;;;;;;;20.80;46.30;;;;;;5077752;28;20295;-70
2022/07/27 10:29:21;;;;;;;;;;;20.60;45.60;;;;;;5092160;28;19967;-70
2022/07/27 10:31:58;;;;;;;;;;;21.10;45.50;;;;;;5089714;28;20014;-71
2022/07/27 10:34:36;;;;;;;;;;;21.50;44.00;;;;;;5091491;28;19967;-71
2022/07/27 10:37:10;;;;;;;;;;;21.20;42.30;;;;;;5089632;28;20011;-70
2022/07/27 10:39:38;;;;;;;;;;;20.70;42.20;;;;;;5088431;28;20024;-70
2022/07/27 10:42:24;;;;;;;;;;;20.10;45.60;;;;;;5078795;28;20351;-70
2022/07/27 10:44:55;;;;;;;;;;;19.80;46.00;;;;;;5091926;28;19924;-70
2022/07/27 10:47:29;;;;;;;;;;;19.70;46.40;;;;;;5089681;28;19924;-70
2022/07/27 10:50:11;;;;;;;;;;;19.50;48.00;;;;;;5092309;28;19925;-70
2022/07/27 10:52:41;;;;;;;;;;;19.40;47.90;;;;;;5089310;28;20011;-70
2022/07/27 10:55:08;;;;;;;;;;;19.60;49.60;;;;;;5090929;28;19982;-70
2022/07/27 10:57:35;;;;;;;;;;;20.20;51.60;;;;;;5083505;28;19924;-70
2022/07/27 11:00:08;;;;;;;;;;;20.10;48.80;;;;;;5095853;28;20303;-70
2022/07/27 11:02:37;;;;;;;;;;;20.10;48.20;;;;;;5093163;28;19978;-70
2022/07/27 11:05:04;;;;;;;;;;;19.80;47.50;;;;;;5094965;28;19930;-70
2022/07/27 11:07:31;;;;;;;;;;;19.70;48.20;;;;;;5092854;28;19930;-70
2022/07/27 11:10:00;;;;;;;;;;;19.80;48.80;;;;;;5090190;28;19934;-70
2022/07/27 11:12:28;;;;;;;;;;;20.00;48.30;;;;;;5091525;28;19959;-71
2022/07/27 11:14:56;;;;;;;;;;;19.60;49.90;;;;;;5094775;28;19947;-69
2022/07/27 11:17:23;;;;;;;;;;;19.60;50.00;;;;;;5092621;28;20395;-70
2022/07/27 11:19:53;;;;;;;;;;;19.60;49.60;;;;;;5094584;28;20426;-70
2022/07/27 11:22:28;;;;;;;;;;;19.50;49.20;;;;;;5082050;28;19924;-69
2022/07/27 11:24:55;;;;;;;;;;;19.20;49.80;;;;;;5074350;28;19924;-70
2022/07/27 11:27:23;;;;;;;;;;;19.30;49.00;;;;;;5085074;28;19975;-70
2022/07/27 11:29:50;;;;;;;;;;;19.40;49.40;;;;;;5094806;28;19978;-70
2022/07/27 11:32:17;;;;;;;;;;;19.30;49.50;;;;;;5088052;28;19930;-70
2022/07/27 11:34:44;;;;;;;;;;;19.60;48.00;;;;;;5094483;28;20375;-70
2022/07/27 11:37:12;;;;;;;;;;;19.50;47.70;;;;;;5092455;28;20394;-70
2022/07/27 11:39:39;;;;;;;;;;;19.70;47.50;;;;;;5094101;28;19932;-69
2022/07/27 11:42:07;;;;;;;;;;;19.90;46.50;;;;;;5092561;28;20451;-70
2022/07/27 11:44:37;;;;;;;;;;;20.20;44.90;;;;;;5081669;28;19924;-70
2022/07/27 11:47:04;;;;;;;;;;;19.80;46.60;;;;;;5082530;28;19924;-70
2022/07/27 11:49:31;;;;;;;;;;;20.30;45.30;;;;;;5079748;28;20371;-71
2022/07/27 11:51:59;;;;;;;;;;;20.40;44.30;;;;;;5080846;28;20470;-69
2022/07/27 11:54:26;;;;;;;;;;;20.80;43.50;;;;;;5093889;28;20408;-72
2022/07/27 11:56:54;;;;;;;;;;;21.00;41.70;;;;;;5092241;28;19960;-72
2022/07/27 11:59:21;;;;;;;;;;;21.30;39.80;;;;;;5080804;28;19979;-70
2022/07/27 12:01:51;;;;;;;;;;;21.70;39.80;;;;;;5087954;28;19932;-71
2022/07/27 12:04:20;;;;;;;;;;;21.90;38.40;;;;;;5083163;28;20413;-71
2022/07/27 12:06:48;;;;;;;;;;;22.00;38.50;;;;;;5079240;28;19938;-71
2022/07/27 12:09:16;;;;;;;;;;;21.10;37.30;;;;;;5089934;28;20359;-70
2022/07/27 12:11:49;;;;;;;;;;;20.50;35.70;;;;;;5077680;28;19924;-71
2022/07/27 12:14:16;;;;;;;;;;;20.90;35.60;;;;;;5093696;28;19928;-71
2022/07/27 12:16:42;;;;;;;;;;;21.60;34.60;;;;;;5087526;28;19924;-71
2022/07/27 12:19:10;;;;;;;;;;;21.60;33.10;;;;;;5094079;28;19924;-71
2022/07/27 12:21:37;;;;;;;;;;;21.40;31.90;;;;;;5092195;28;19924;-70
2022/07/27 12:24:04;;;;;;;;;;;21.20;31.60;;;;;;5094511;28;19975;-71
2022/07/27 12:26:32;;;;;;;;;;;20.60;34.50;;;;;;5091418;28;20577;-70
2022/07/27 12:29:06;;;;;;;;;;;20.60;33.80;;;;;;5092130;28;20422;-71
2022/07/27 12:31:33;;;;;;;;;;;21.30;33.40;;;;;;5076818;28;19964;-70
2022/07/27 12:34:01;;;;;;;;;;;21.30;30.20;;;;;;5093466;28;20374;-71
2022/07/27 12:36:30;;;;;;;;;;;20.60;35.10;;;;;;5089131;28;19955;-70
2022/07/27 12:38:57;;;;;;;;;;;20.40;35.10;;;;;;5072607;28;19928;-71
2022/07/27 12:41:25;;;;;;;;;;;20.40;36.00;;;;;;5075425;28;19925;-71
2022/07/27 12:44:04;;;;;;;;;;;20.30;35.40;;;;;;5079613;28;19924;-71
2022/07/27 12:46:31;;;;;;;;;;;20.30;34.70;;;;;;5072853;28;19924;-71
2022/07/27 12:48:58;;;;;;;;;;;20.50;35.40;;;;;;5092832;28;19989;-71
2022/07/27 12:51:24;;;;;;;;;;;20.40;35.80;;;;;;5091262;28;20356;-71
2022/07/27 12:53:52;;;;;;;;;;;21.00;34.10;;;;;;5093148;28;20291;-71
2022/07/27 12:56:19;;;;;;;;;;;21.20;32.60;;;;;;5090713;28;19975;-71
2022/07/27 12:58:57;;;;;;;;;;;20.70;30.40;;;;;;5091583;28;19924;-71
2022/07/27 13:01:24;;;;;;;;;;;20.70;30.80;;;;;;5088913;28;20007;-71
2022/07/27 13:03:51;;;;;;;;;;;21.10;31.10;;;;;;5071728;28;19947;-72
2022/07/27 13:06:17;;;;;;;;;;;21.40;29.10;;;;;;5074042;28;19971;-71
2022/07/27 13:08:44;;;;;;;;;;;21.50;32.90;;;;;;5092827;28;19924;-71
2022/07/27 13:11:12;;;;;;;;;;;21.10;32.00;;;;;;5090648;28;20031;-71
2022/07/27 13:13:39;;;;;;;;;;;20.60;31.90;;;;;;5072647;28;20026;-71
2022/07/27 13:16:06;;;;;;;;;;;20.70;31.90;;;;;;5072057;28;19924;-71
2022/07/27 13:18:32;;;;;;;;;;;20.70;29.80;;;;;;5079090;28;19929;-70
2022/07/27 13:20:59;;;;;;;;;;;20.90;28.60;;;;;;5071098;28;19928;-71
2022/07/27 13:23:26;;;;;;;;;;;21.70;28.40;;;;;;5073145;28;20383;-70
2022/07/27 13:25:53;;;;;;;;;;;21.50;30.50;;;;;;5072654;28;19924;-70
2022/07/27 13:28:21;;;;;;;;;;;20.80;31.80;;;;;;5073046;28;19924;-73
2022/07/27 13:30:48;;;;;;;;;;;20.30;33.70;;;;;;5072129;28;19938;-70
2022/07/27 13:33:15;;;;;;;;;;;20.60;34.30;;;;;;5072716;28;19947;-70
2022/07/27 13:35:41;;;;;;;;;;;20.70;31.30;;;;;;5071914;28;20305;-70
2022/07/27 13:38:08;;;;;;;;;;;20.80;30.00;;;;;;5089150;28;19924;-70
2022/07/27 13:40:35;;;;;;;;;;;21.00;28.30;;;;;;5091914;28;19928;-71
2022/07/27 13:43:01;;;;;;;;;;;21.50;28.60;;;;;;5090044;28;20386;-71
2022/07/27 13:45:29;;;;;;;;;;;21.70;27.30;;;;;;5091743;28;19967;-71
2022/07/27 13:47:56;;;;;;;;;;;21.70;27.00;;;;;;5089983;28;19978;-71
2022/07/27 13:50:23;;;;;;;;;;;21.30;27.20;;;;;;5086838;28;20120;-71
2022/07/27 13:52:50;;;;;;;;;;;20.90;28.10;;;;;;5086162;28;19971;-71
2022/07/27 13:55:17;;;;;;;;;;;21.00;27.30;;;;;;5092591;28;19930;-71
2022/07/27 13:57:43;;;;;;;;;;;21.50;27.20;;;;;;5090131;28;19924;-71
2022/07/27 14:00:11;;;;;;;;;;;21.80;25.40;;;;;;5091947;28;20011;-71
2022/07/27 14:02:39;;;;;;;;;;;21.80;25.60;;;;;;5090339;28;20367;-71
2022/07/27 14:05:07;;;;;;;;;;;22.80;25.00;;;;;;5092139;28;19924;-70
2022/07/27 14:07:34;;;;;;;;;;;23.30;24.40;;;;;;5090133;28;19924;-71
2022/07/27 14:12:44;;;;;;;;;;;22.60;28.00;;;;;;5090191;28;20394;-70
2022/07/27 14:15:11;;;;;;;;;;;21.60;30.70;;;;;;5092450;28;19978;-68
2022/07/27 14:17:39;;;;;;;;;;;21.00;32.10;;;;;;5090201;28;20012;-67
2022/07/27 14:20:07;;;;;;;;;;;21.00;32.80;;;;;;5085753;28;19928;-68
2022/07/27 14:22:34;;;;;;;;;;;21.10;33.70;;;;;;5090139;28;19924;-69
2022/07/27 14:25:00;;;;;;;;;;;21.20;33.50;;;;;;5075546;28;19934;-69